sensor_id;sensor_type;location;lat;lon;timestamp;temperature;humidity
70051;SHT30;57391;51.306;22.680;2022-09-03T00:00:34;11.69;64.95
70051;SHT30;57391;51.306;22.680;2022-09-03T00:03:26;11.68;64.99
70051;SHT30;57391;51.306;22.680;2022-09-03T00:14:42;11.59;65.66
70051;SHT30;57391;51.306;22.680;2022-09-03T00:17:19;11.60;65.74
70051;SHT30;57391;51.306;22.680;2022-09-03T00:23:04;11.55;66.03
70051;SHT30;57391;51.306;22.680;2022-09-03T00:25:43;11.48;66.17
70051;SHT30;57391;51.306;22.680;2022-09-03T00:28:22;11.36;66.19
70051;SHT30;57391;51.306;22.680;2022-09-03T00:31:04;11.30;66.37
70051;SHT30;57391;51.306;22.680;2022-09-03T00:33:57;11.27;66.43
70051;SHT30;57391;51.306;22.680;2022-09-03T00:36:43;11.24;66.45
70051;SHT30;57391;51.306;22.680;2022-09-03T00:39:13;11.23;66.60
70051;SHT30;57391;51.306;22.680;2022-09-03T00:41:53;11.22;66.70
70051;SHT30;57391;51.306;22.680;2022-09-03T00:50:35;11.12;67.07
70051;SHT30;57391;51.306;22.680;2022-09-03T00:53:35;11.08;67.01
70051;SHT30;57391;51.306;22.680;2022-09-03T00:59:32;11.04;67.03
70051;SHT30;57391;51.306;22.680;2022-09-03T01:02:30;11.00;67.16
70051;SHT30;57391;51.306;22.680;2022-09-03T01:08:36;10.90;67.36
70051;SHT30;57391;51.306;22.680;2022-09-03T01:11:26;10.86;67.43
70051;SHT30;57391;51.306;22.680;2022-09-03T01:17:10;10.80;67.52
70051;SHT30;57391;51.306;22.680;2022-09-03T01:29:38;10.66;67.87
70051;SHT30;57391;51.306;22.680;2022-09-03T01:35:23;10.64;68.01
70051;SHT30;57391;51.306;22.680;2022-09-03T01:40:58;10.63;68.08
70051;SHT30;57391;51.306;22.680;2022-09-03T01:43:57;10.62;68.12
70051;SHT30;57391;51.306;22.680;2022-09-03T01:46:35;10.63;68.18
70051;SHT30;57391;51.306;22.680;2022-09-03T01:49:19;10.62;68.16
70051;SHT30;57391;51.306;22.680;2022-09-03T01:52:01;10.59;68.14
70051;SHT30;57391;51.306;22.680;2022-09-03T01:54:47;10.61;68.15
70051;SHT30;57391;51.306;22.680;2022-09-03T01:57:45;10.61;68.10
70051;SHT30;57391;51.306;22.680;2022-09-03T02:00:24;10.61;68.10
70051;SHT30;57391;51.306;22.680;2022-09-03T02:02:54;10.60;68.03
70051;SHT30;57391;51.306;22.680;2022-09-03T02:05:25;10.58;67.99
70051;SHT30;57391;51.306;22.680;2022-09-03T02:10:31;10.57;68.00
70051;SHT30;57391;51.306;22.680;2022-09-03T02:13:37;10.57;67.97
70051;SHT30;57391;51.306;22.680;2022-09-03T02:16:09;10.56;68.00
70051;SHT30;57391;51.306;22.680;2022-09-03T02:18:46;10.55;68.02
70051;SHT30;57391;51.306;22.680;2022-09-03T02:21:20;10.55;67.94
70051;SHT30;57391;51.306;22.680;2022-09-03T02:23:51;10.54;67.96
70051;SHT30;57391;51.306;22.680;2022-09-03T02:26:21;10.54;67.92
70051;SHT30;57391;51.306;22.680;2022-09-03T02:28:50;10.53;67.86
70051;SHT30;57391;51.306;22.680;2022-09-03T02:31:19;10.51;67.84
70051;SHT30;57391;51.306;22.680;2022-09-03T02:33:47;10.48;67.80
70051;SHT30;57391;51.306;22.680;2022-09-03T02:36:17;10.45;67.80
70051;SHT30;57391;51.306;22.680;2022-09-03T02:38:52;10.43;67.77
70051;SHT30;57391;51.306;22.680;2022-09-03T02:41:19;10.41;67.75
70051;SHT30;57391;51.306;22.680;2022-09-03T02:43:50;10.40;67.79
70051;SHT30;57391;51.306;22.680;2022-09-03T02:46:27;10.38;67.80
70051;SHT30;57391;51.306;22.680;2022-09-03T02:49:06;10.36;67.77
70051;SHT30;57391;51.306;22.680;2022-09-03T02:51:37;10.33;67.80
70051;SHT30;57391;51.306;22.680;2022-09-03T02:54:08;10.32;67.73
70051;SHT30;57391;51.306;22.680;2022-09-03T02:56:37;10.28;67.71
70051;SHT30;57391;51.306;22.680;2022-09-03T02:59:05;10.25;67.73
70051;SHT30;57391;51.306;22.680;2022-09-03T03:01:34;10.21;67.73
70051;SHT30;57391;51.306;22.680;2022-09-03T03:04:02;10.14;67.76
70051;SHT30;57391;51.306;22.680;2022-09-03T03:06:30;10.07;67.90
70051;SHT30;57391;51.306;22.680;2022-09-03T03:08:58;10.02;68.04
70051;SHT30;57391;51.306;22.680;2022-09-03T03:11:27;9.96;68.07
70051;SHT30;57391;51.306;22.680;2022-09-03T03:13:56;9.90;68.18
70051;SHT30;57391;51.306;22.680;2022-09-03T03:16:33;9.86;68.22
70051;SHT30;57391;51.306;22.680;2022-09-03T03:19:00;9.83;68.24
70051;SHT30;57391;51.306;22.680;2022-09-03T03:21:28;9.79;68.33
70051;SHT30;57391;51.306;22.680;2022-09-03T03:23:56;9.76;68.40
70051;SHT30;57391;51.306;22.680;2022-09-03T03:26:23;9.75;68.52
70051;SHT30;57391;51.306;22.680;2022-09-03T03:28:56;9.72;68.60
70051;SHT30;57391;51.306;22.680;2022-09-03T03:31:26;9.68;68.67
70051;SHT30;57391;51.306;22.680;2022-09-03T03:33:54;9.66;68.73
70051;SHT30;57391;51.306;22.680;2022-09-03T03:36:28;9.65;68.78
70051;SHT30;57391;51.306;22.680;2022-09-03T03:38:59;9.64;68.82
70051;SHT30;57391;51.306;22.680;2022-09-03T03:41:31;9.64;68.83
70051;SHT30;57391;51.306;22.680;2022-09-03T03:44:02;9.61;68.90
70051;SHT30;57391;51.306;22.680;2022-09-03T03:46:36;9.60;68.95
70051;SHT30;57391;51.306;22.680;2022-09-03T03:49:06;9.60;69.01
70051;SHT30;57391;51.306;22.680;2022-09-03T03:51:35;9.60;69.05
70051;SHT30;57391;51.306;22.680;2022-09-03T03:54:03;9.59;69.05
70051;SHT30;57391;51.306;22.680;2022-09-03T03:56:32;9.59;69.13
70051;SHT30;57391;51.306;22.680;2022-09-03T03:59:00;9.59;69.12
70051;SHT30;57391;51.306;22.680;2022-09-03T04:01:27;9.58;69.16
70051;SHT30;57391;51.306;22.680;2022-09-03T04:03:55;9.58;69.20
70051;SHT30;57391;51.306;22.680;2022-09-03T04:06:25;9.57;69.21
70051;SHT30;57391;51.306;22.680;2022-09-03T04:08:53;9.57;69.32
70051;SHT30;57391;51.306;22.680;2022-09-03T04:11:20;9.57;69.30
70051;SHT30;57391;51.306;22.680;2022-09-03T04:13:49;9.57;69.33
70051;SHT30;57391;51.306;22.680;2022-09-03T04:16:18;9.58;69.39
70051;SHT30;57391;51.306;22.680;2022-09-03T04:18:49;9.59;69.39
70051;SHT30;57391;51.306;22.680;2022-09-03T04:21:33;9.63;69.49
70051;SHT30;57391;51.306;22.680;2022-09-03T04:24:02;9.67;69.52
70051;SHT30;57391;51.306;22.680;2022-09-03T04:26:31;9.74;69.51
70051;SHT30;57391;51.306;22.680;2022-09-03T04:29:07;10.05;69.18
70051;SHT30;57391;51.306;22.680;2022-09-03T04:31:36;10.97;67.90
70051;SHT30;57391;51.306;22.680;2022-09-03T04:34:04;12.05;65.67
70051;SHT30;57391;51.306;22.680;2022-09-03T04:36:31;12.85;63.65
70051;SHT30;57391;51.306;22.680;2022-09-03T04:39:00;13.41;62.18
70051;SHT30;57391;51.306;22.680;2022-09-03T04:41:28;13.86;60.84
70051;SHT30;57391;51.306;22.680;2022-09-03T04:43:57;14.22;59.67
70051;SHT30;57391;51.306;22.680;2022-09-03T04:46:25;14.40;58.84
70051;SHT30;57391;51.306;22.680;2022-09-03T04:48:58;14.44;58.42
70051;SHT30;57391;51.306;22.680;2022-09-03T04:51:26;14.89;57.69
70051;SHT30;57391;51.306;22.680;2022-09-03T04:53:56;15.10;56.56
70051;SHT30;57391;51.306;22.680;2022-09-03T04:56:26;15.32;56.07
70051;SHT30;57391;51.306;22.680;2022-09-03T04:58:59;15.66;55.15
70051;SHT30;57391;51.306;22.680;2022-09-03T05:01:30;15.86;54.50
70051;SHT30;57391;51.306;22.680;2022-09-03T05:04:00;16.65;53.33
70051;SHT30;57391;51.306;22.680;2022-09-03T05:06:28;16.95;52.10
70051;SHT30;57391;51.306;22.680;2022-09-03T05:08:57;17.46;51.41
70051;SHT30;57391;51.306;22.680;2022-09-03T05:11:24;17.81;50.24
70051;SHT30;57391;51.306;22.680;2022-09-03T05:13:54;18.06;49.71
70051;SHT30;57391;51.306;22.680;2022-09-03T05:16:24;18.67;48.46
70051;SHT30;57391;51.306;22.680;2022-09-03T05:18:53;18.68;47.53
70051;SHT30;57391;51.306;22.680;2022-09-03T05:21:25;18.80;46.90
70051;SHT30;57391;51.306;22.680;2022-09-03T05:23:54;18.66;46.49
70051;SHT30;57391;51.306;22.680;2022-09-03T05:26:26;19.45;45.91
70051;SHT30;57391;51.306;22.680;2022-09-03T05:28:57;20.36;44.44
70051;SHT30;57391;51.306;22.680;2022-09-03T05:31:28;20.22;44.51
70051;SHT30;57391;51.306;22.680;2022-09-03T05:33:58;19.74;45.29
70051;SHT30;57391;51.306;22.680;2022-09-03T05:36:28;19.34;45.75
70051;SHT30;57391;51.306;22.680;2022-09-03T05:38:59;19.56;45.76
70051;SHT30;57391;51.306;22.680;2022-09-03T05:41:27;20.60;44.12
70051;SHT30;57391;51.306;22.680;2022-09-03T05:44:09;21.11;43.00
70051;SHT30;57391;51.306;22.680;2022-09-03T05:46:36;20.71;43.34
70051;SHT30;57391;51.306;22.680;2022-09-03T05:49:04;20.28;43.92
70051;SHT30;57391;51.306;22.680;2022-09-03T05:51:34;20.03;44.47
70051;SHT30;57391;51.306;22.680;2022-09-03T05:54:02;20.44;43.85
70051;SHT30;57391;51.306;22.680;2022-09-03T05:56:31;21.50;42.74
70051;SHT30;57391;51.306;22.680;2022-09-03T05:58:59;22.38;41.46
70051;SHT30;57391;51.306;22.680;2022-09-03T06:01:33;22.80;40.58
70051;SHT30;57391;51.306;22.680;2022-09-03T06:04:12;22.35;41.13
70051;SHT30;57391;51.306;22.680;2022-09-03T06:11:50;21.56;42.22
70051;SHT30;57391;51.306;22.680;2022-09-03T06:14:19;22.18;41.02
70051;SHT30;57391;51.306;22.680;2022-09-03T06:16:48;22.74;40.11
70051;SHT30;57391;51.306;22.680;2022-09-03T06:19:18;23.33;38.60
70051;SHT30;57391;51.306;22.680;2022-09-03T06:21:45;23.61;37.36
70051;SHT30;57391;51.306;22.680;2022-09-03T06:24:14;23.18;38.04
70051;SHT30;57391;51.306;22.680;2022-09-03T06:26:45;22.43;39.13
70051;SHT30;57391;51.306;22.680;2022-09-03T06:29:12;21.84;40.69
70051;SHT30;57391;51.306;22.680;2022-09-03T06:31:41;21.45;40.41
70051;SHT30;57391;51.306;22.680;2022-09-03T06:34:08;21.10;40.87
70051;SHT30;57391;51.306;22.680;2022-09-03T06:36:36;21.37;41.03
70051;SHT30;57391;51.306;22.680;2022-09-03T06:39:03;21.87;40.78
70051;SHT30;57391;51.306;22.680;2022-09-03T06:41:30;22.38;39.51
70051;SHT30;57391;51.306;22.680;2022-09-03T06:44:01;22.72;38.77
70051;SHT30;57391;51.306;22.680;2022-09-03T06:46:34;23.06;38.91
70051;SHT30;57391;51.306;22.680;2022-09-03T06:49:10;23.49;38.34
70051;SHT30;57391;51.306;22.680;2022-09-03T06:51:38;23.92;37.27
70051;SHT30;57391;51.306;22.680;2022-09-03T06:54:07;24.14;36.69
70051;SHT30;57391;51.306;22.680;2022-09-03T06:56:37;24.20;36.76
70051;SHT30;57391;51.306;22.680;2022-09-03T06:59:07;23.95;36.98
70051;SHT30;57391;51.306;22.680;2022-09-03T07:01:40;23.66;37.85
70051;SHT30;57391;51.306;22.680;2022-09-03T07:04:09;23.29;37.85
70051;SHT30;57391;51.306;22.680;2022-09-03T07:06:39;22.96;38.37
70051;SHT30;57391;51.306;22.680;2022-09-03T07:09:08;22.75;38.53
70051;SHT30;57391;51.306;22.680;2022-09-03T07:11:38;22.81;38.54
70051;SHT30;57391;51.306;22.680;2022-09-03T07:14:12;22.74;37.45
70051;SHT30;57391;51.306;22.680;2022-09-03T07:16:41;22.63;37.44
70051;SHT30;57391;51.306;22.680;2022-09-03T07:19:09;22.77;37.85
70051;SHT30;57391;51.306;22.680;2022-09-03T07:21:39;23.03;37.46
70051;SHT30;57391;51.306;22.680;2022-09-03T07:24:08;23.32;37.05
70051;SHT30;57391;51.306;22.680;2022-09-03T07:26:37;23.52;36.90
70051;SHT30;57391;51.306;22.680;2022-09-03T07:29:10;23.74;36.49
70051;SHT30;57391;51.306;22.680;2022-09-03T07:31:38;23.93;35.88
70051;SHT30;57391;51.306;22.680;2022-09-03T07:34:08;24.09;35.40
70051;SHT30;57391;51.306;22.680;2022-09-03T07:36:38;24.20;35.76
70051;SHT30;57391;51.306;22.680;2022-09-03T07:39:09;24.40;34.91
70051;SHT30;57391;51.306;22.680;2022-09-03T07:41:38;24.21;35.04
70051;SHT30;57391;51.306;22.680;2022-09-03T07:44:11;24.07;35.36
70051;SHT30;57391;51.306;22.680;2022-09-03T07:46:41;24.10;35.94
70051;SHT30;57391;51.306;22.680;2022-09-03T07:49:11;23.93;34.65
70051;SHT30;57391;51.306;22.680;2022-09-03T07:51:39;23.60;34.75
70051;SHT30;57391;51.306;22.680;2022-09-03T07:54:07;23.45;35.27
70051;SHT30;57391;51.306;22.680;2022-09-03T07:56:37;23.42;34.93
70051;SHT30;57391;51.306;22.680;2022-09-03T08:02:06;23.14;34.42
70051;SHT30;57391;51.306;22.680;2022-09-03T08:04:33;22.96;34.58
70051;SHT30;57391;51.306;22.680;2022-09-03T08:07:01;22.92;34.90
70051;SHT30;57391;51.306;22.680;2022-09-03T08:09:29;22.93;33.85
70051;SHT30;57391;51.306;22.680;2022-09-03T08:11:58;22.91;34.15
70051;SHT30;57391;51.306;22.680;2022-09-03T08:14:25;23.11;34.61
70051;SHT30;57391;51.306;22.680;2022-09-03T08:16:52;23.50;33.96
70051;SHT30;57391;51.306;22.680;2022-09-03T08:19:20;23.52;32.26
70051;SHT30;57391;51.306;22.680;2022-09-03T08:21:48;23.47;33.19
70051;SHT30;57391;51.306;22.680;2022-09-03T08:24:15;23.60;33.09
70051;SHT30;57391;51.306;22.680;2022-09-03T08:26:47;23.60;32.31
70051;SHT30;57391;51.306;22.680;2022-09-03T08:29:14;23.42;32.09
70051;SHT30;57391;51.306;22.680;2022-09-03T08:31:41;23.17;31.86
70051;SHT30;57391;51.306;22.680;2022-09-03T08:34:09;23.08;32.59
70051;SHT30;57391;51.306;22.680;2022-09-03T08:36:38;23.14;32.54
70051;SHT30;57391;51.306;22.680;2022-09-03T08:39:09;23.24;32.68
70051;SHT30;57391;51.306;22.680;2022-09-03T08:49:53;23.61;31.06
70051;SHT30;57391;51.306;22.680;2022-09-03T08:52:44;23.35;31.00
70051;SHT30;57391;51.306;22.680;2022-09-03T08:55:52;23.20;30.66
70051;SHT30;57391;51.306;22.680;2022-09-03T08:58:24;23.11;30.81
70051;SHT30;57391;51.306;22.680;2022-09-03T09:00:58;23.08;31.45
70051;SHT30;57391;51.306;22.680;2022-09-03T09:10:00;23.25;31.61
70051;SHT30;57391;51.306;22.680;2022-09-03T09:12:50;23.24;31.61
70051;SHT30;57391;51.306;22.680;2022-09-03T09:25:24;23.78;30.77
70051;SHT30;57391;51.306;22.680;2022-09-03T09:28:06;23.77;30.57
70051;SHT30;57391;51.306;22.680;2022-09-03T09:31:02;23.65;29.87
70051;SHT30;57391;51.306;22.680;2022-09-03T09:33:37;23.73;30.90
70051;SHT30;57391;51.306;22.680;2022-09-03T09:36:06;23.91;31.30
70051;SHT30;57391;51.306;22.680;2022-09-03T09:38:46;24.29;30.45
70051;SHT30;57391;51.306;22.680;2022-09-03T09:41:15;24.40;29.51
70051;SHT30;57391;51.306;22.680;2022-09-03T09:43:46;24.32;28.75
70051;SHT30;57391;51.306;22.680;2022-09-03T09:46:15;24.33;30.08
70051;SHT30;57391;51.306;22.680;2022-09-03T09:48:55;24.40;29.40
70051;SHT30;57391;51.306;22.680;2022-09-03T09:51:25;24.26;28.70
70051;SHT30;57391;51.306;22.680;2022-09-03T09:56:57;23.96;28.45
70051;SHT30;57391;51.306;22.680;2022-09-03T09:59:28;23.81;28.38
70051;SHT30;57391;51.306;22.680;2022-09-03T10:02:06;23.75;27.99
70051;SHT30;57391;51.306;22.680;2022-09-03T10:04:55;23.70;27.49
70051;SHT30;57391;51.306;22.680;2022-09-03T10:07:38;23.69;28.24
70051;SHT30;57391;51.306;22.680;2022-09-03T10:10:09;23.70;27.52
70051;SHT30;57391;51.306;22.680;2022-09-03T10:12:55;23.68;27.47
70051;SHT30;57391;51.306;22.680;2022-09-03T10:21:14;23.76;27.78
70051;SHT30;57391;51.306;22.680;2022-09-03T10:26:52;24.05;28.04
70051;SHT30;57391;51.306;22.680;2022-09-03T10:29:22;23.96;28.05
70051;SHT30;57391;51.306;22.680;2022-09-03T10:46:27;23.59;29.97
70051;SHT30;57391;51.306;22.680;2022-09-03T10:49:33;23.54;30.39
70051;SHT30;57391;51.306;22.680;2022-09-03T11:04:25;23.48;30.64
70051;SHT30;57391;51.306;22.680;2022-09-03T11:07:13;23.61;31.48
70051;SHT30;57391;51.306;22.680;2022-09-03T11:10:00;23.68;30.76
70051;SHT30;57391;51.306;22.680;2022-09-03T11:12:48;23.66;31.08
70051;SHT30;57391;51.306;22.680;2022-09-03T11:20:38;23.48;31.51
70051;SHT30;57391;51.306;22.680;2022-09-03T11:23:08;23.52;31.81
70051;SHT30;57391;51.306;22.680;2022-09-03T11:25:42;23.57;31.28
70051;SHT30;57391;51.306;22.680;2022-09-03T11:36:51;23.19;32.46
70051;SHT30;57391;51.306;22.680;2022-09-03T11:47:45;23.35;32.14
70051;SHT30;57391;51.306;22.680;2022-09-03T11:50:17;23.31;31.95
70051;SHT30;57391;51.306;22.680;2022-09-03T11:52:50;23.24;31.27
70051;SHT30;57391;51.306;22.680;2022-09-03T11:55:57;23.24;31.94
70051;SHT30;57391;51.306;22.680;2022-09-03T11:58:35;23.33;32.77
70051;SHT30;57391;51.306;22.680;2022-09-03T12:01:15;23.31;32.28
70051;SHT30;57391;51.306;22.680;2022-09-03T12:03:56;23.23;32.25
70051;SHT30;57391;51.306;22.680;2022-09-03T12:10:01;23.01;32.95
70051;SHT30;57391;51.306;22.680;2022-09-03T12:19:07;22.99;34.09
70051;SHT30;57391;51.306;22.680;2022-09-03T12:21:48;23.00;33.15
70051;SHT30;57391;51.306;22.680;2022-09-03T12:24:15;22.88;33.48
70051;SHT30;57391;51.306;22.680;2022-09-03T12:26:45;22.83;34.37
70051;SHT30;57391;51.306;22.680;2022-09-03T12:29:19;22.87;34.13
70051;SHT30;57391;51.306;22.680;2022-09-03T12:31:53;22.91;33.98
70051;SHT30;57391;51.306;22.680;2022-09-03T12:34:22;22.94;33.41
70051;SHT30;57391;51.306;22.680;2022-09-03T12:36:52;22.90;33.35
70051;SHT30;57391;51.306;22.680;2022-09-03T12:39:24;22.82;33.36
70051;SHT30;57391;51.306;22.680;2022-09-03T12:44:27;22.75;33.38
70051;SHT30;57391;51.306;22.680;2022-09-03T12:47:10;22.78;33.65
70051;SHT30;57391;51.306;22.680;2022-09-03T12:49:45;22.92;33.88
70051;SHT30;57391;51.306;22.680;2022-09-03T12:58:33;22.82;34.54
70051;SHT30;57391;51.306;22.680;2022-09-03T13:03:50;22.54;35.40
70051;SHT30;57391;51.306;22.680;2022-09-03T13:06:44;22.46;35.37
70051;SHT30;57391;51.306;22.680;2022-09-03T13:09:29;22.39;35.18
70051;SHT30;57391;51.306;22.680;2022-09-03T13:12:02;22.43;35.64
70051;SHT30;57391;51.306;22.680;2022-09-03T13:14:42;22.52;35.20
70051;SHT30;57391;51.306;22.680;2022-09-03T13:26:29;22.58;35.08
70051;SHT30;57391;51.306;22.680;2022-09-03T13:29:20;22.31;35.63
70051;SHT30;57391;51.306;22.680;2022-09-03T13:32:11;22.06;35.89
70051;SHT30;57391;51.306;22.680;2022-09-03T13:34:47;21.85;36.20
70051;SHT30;57391;51.306;22.680;2022-09-03T13:39:57;21.62;36.45
70051;SHT30;57391;51.306;22.680;2022-09-03T13:42:35;21.54;36.66
70051;SHT30;57391;51.306;22.680;2022-09-03T13:48:23;21.82;37.19
70051;SHT30;57391;51.306;22.680;2022-09-03T13:51:23;22.00;36.70
70051;SHT30;57391;51.306;22.680;2022-09-03T13:53:58;22.15;36.79
70051;SHT30;57391;51.306;22.680;2022-09-03T13:57:16;22.20;37.08
70051;SHT30;57391;51.306;22.680;2022-09-03T14:00:06;22.19;37.21
70051;SHT30;57391;51.306;22.680;2022-09-03T14:02:51;22.11;37.40
70051;SHT30;57391;51.306;22.680;2022-09-03T14:05:38;21.97;37.48
70051;SHT30;57391;51.306;22.680;2022-09-03T14:08:29;21.81;37.37
70051;SHT30;57391;51.306;22.680;2022-09-03T14:11:22;21.69;38.03
70051;SHT30;57391;51.306;22.680;2022-09-03T14:17:41;21.69;39.18
70051;SHT30;57391;51.306;22.680;2022-09-03T14:20:42;21.66;39.35
70051;SHT30;57391;51.306;22.680;2022-09-03T14:25:52;21.43;39.80
70051;SHT30;57391;51.306;22.680;2022-09-03T14:40:17;21.12;40.95
70051;SHT30;57391;51.306;22.680;2022-09-03T14:58:48;21.24;42.66
70051;SHT30;57391;51.306;22.680;2022-09-03T15:01:33;21.18;42.24
70051;SHT30;57391;51.306;22.680;2022-09-03T15:10:01;21.06;42.40
70051;SHT30;57391;51.306;22.680;2022-09-03T15:23:23;20.68;44.93
70051;SHT30;57391;51.306;22.680;2022-09-03T15:26:31;20.56;45.55
70051;SHT30;57391;51.306;22.680;2022-09-03T15:29:18;20.42;46.34
70051;SHT30;57391;51.306;22.680;2022-09-03T15:38:07;20.19;48.09
70051;SHT30;57391;51.306;22.680;2022-09-03T15:41:00;20.09;48.62
70051;SHT30;57391;51.306;22.680;2022-09-03T15:43:35;19.99;49.11
70051;SHT30;57391;51.306;22.680;2022-09-03T15:51:29;19.83;50.27
70051;SHT30;57391;51.306;22.680;2022-09-03T15:54:22;19.80;50.41
70051;SHT30;57391;51.306;22.680;2022-09-03T15:57:04;19.76;50.66
70051;SHT30;57391;51.306;22.680;2022-09-03T16:02:18;19.67;51.14
70051;SHT30;57391;51.306;22.680;2022-09-03T16:05:18;19.57;51.49
70051;SHT30;57391;51.306;22.680;2022-09-03T16:08:01;19.48;51.71
70051;SHT30;57391;51.306;22.680;2022-09-03T16:10:38;19.44;51.93
70051;SHT30;57391;51.306;22.680;2022-09-03T16:15:59;19.33;52.41
70051;SHT30;57391;51.306;22.680;2022-09-03T16:18:33;19.28;52.49
70051;SHT30;57391;51.306;22.680;2022-09-03T16:24:25;19.14;53.01
70051;SHT30;57391;51.306;22.680;2022-09-03T16:27:16;19.09;53.24
70051;SHT30;57391;51.306;22.680;2022-09-03T17:00:12;18.22;54.99
70051;SHT30;57391;51.306;22.680;2022-09-03T17:11:55;18.00;55.76
70051;SHT30;57391;51.306;22.680;2022-09-03T17:17:51;17.86;55.94
70051;SHT30;57391;51.306;22.680;2022-09-03T17:29:36;17.60;56.50
70051;SHT30;57391;51.306;22.680;2022-09-03T17:41:39;17.34;57.05
70051;SHT30;57391;51.306;22.680;2022-09-03T17:50:11;17.18;57.68
70051;SHT30;57391;51.306;22.680;2022-09-03T17:52:48;17.10;57.88
70051;SHT30;57391;51.306;22.680;2022-09-03T17:55:34;17.02;58.15
70051;SHT30;57391;51.306;22.680;2022-09-03T17:58:44;16.94;58.31
70051;SHT30;57391;51.306;22.680;2022-09-03T18:01:32;16.86;58.51
70051;SHT30;57391;51.306;22.680;2022-09-03T18:04:17;16.81;58.70
70051;SHT30;57391;51.306;22.680;2022-09-03T18:07:26;16.74;58.95
70051;SHT30;57391;51.306;22.680;2022-09-03T18:10:18;16.70;59.12
70051;SHT30;57391;51.306;22.680;2022-09-03T18:16:23;16.60;59.45
70051;SHT30;57391;51.306;22.680;2022-09-03T18:22:28;16.52;59.71
70051;SHT30;57391;51.306;22.680;2022-09-03T18:25:30;16.51;59.84
70051;SHT30;57391;51.306;22.680;2022-09-03T18:28:33;16.51;60.03
70051;SHT30;57391;51.306;22.680;2022-09-03T18:31:26;16.50;60.14
70051;SHT30;57391;51.306;22.680;2022-09-03T18:34:11;16.49;60.19
70051;SHT30;57391;51.306;22.680;2022-09-03T18:36:58;16.49;60.28
70051;SHT30;57391;51.306;22.680;2022-09-03T18:39:44;16.46;60.44
70051;SHT30;57391;51.306;22.680;2022-09-03T18:52:12;16.36;60.94
70051;SHT30;57391;51.306;22.680;2022-09-03T18:55:18;16.28;61.30
70051;SHT30;57391;51.306;22.680;2022-09-03T19:01:32;16.14;61.62
70051;SHT30;57391;51.306;22.680;2022-09-03T19:04:28;16.10;61.94
70051;SHT30;57391;51.306;22.680;2022-09-03T19:13:41;15.90;62.68
70051;SHT30;57391;51.306;22.680;2022-09-03T19:23:11;15.65;63.33
70051;SHT30;57391;51.306;22.680;2022-09-03T19:26:10;15.61;63.52
70051;SHT30;57391;51.306;22.680;2022-09-03T19:29:16;15.53;63.74
70051;SHT30;57391;51.306;22.680;2022-09-03T19:33:05;15.40;64.09
70051;SHT30;57391;51.306;22.680;2022-09-03T19:39:16;15.12;64.93
70051;SHT30;57391;51.306;22.680;2022-09-03T19:42:30;15.01;65.38
70051;SHT30;57391;51.306;22.680;2022-09-03T19:55:10;14.66;66.65
70051;SHT30;57391;51.306;22.680;2022-09-03T19:58:05;14.59;66.87
70051;SHT30;57391;51.306;22.680;2022-09-03T20:00:53;14.54;67.07
70051;SHT30;57391;51.306;22.680;2022-09-03T20:03:41;14.54;67.29
70051;SHT30;57391;51.306;22.680;2022-09-03T20:06:28;14.54;67.50
70051;SHT30;57391;51.306;22.680;2022-09-03T20:09:21;14.54;67.67
70051;SHT30;57391;51.306;22.680;2022-09-03T20:12:21;14.52;67.69
70051;SHT30;57391;51.306;22.680;2022-09-03T20:14:56;14.49;67.72
70051;SHT30;57391;51.306;22.680;2022-09-03T20:20:31;14.48;68.00
70051;SHT30;57391;51.306;22.680;2022-09-03T20:23:32;14.47;68.12
70051;SHT30;57391;51.306;22.680;2022-09-03T20:32:50;14.43;67.58
70051;SHT30;57391;51.306;22.680;2022-09-03T20:50:51;14.10;68.06
70051;SHT30;57391;51.306;22.680;2022-09-03T21:05:07;13.96;67.47
70051;SHT30;57391;51.306;22.680;2022-09-03T21:10:55;13.83;67.64
70051;SHT30;57391;51.306;22.680;2022-09-03T21:13:31;13.78;67.68
70051;SHT30;57391;51.306;22.680;2022-09-03T21:16:35;13.75;67.59
70051;SHT30;57391;51.306;22.680;2022-09-03T21:19:33;13.75;68.26
70051;SHT30;57391;51.306;22.680;2022-09-03T21:25:11;13.76;68.32
70051;SHT30;57391;51.306;22.680;2022-09-03T21:27:58;13.76;68.03
70051;SHT30;57391;51.306;22.680;2022-09-03T21:30:35;13.73;67.75
70051;SHT30;57391;51.306;22.680;2022-09-03T21:33:17;13.68;67.68
70051;SHT30;57391;51.306;22.680;2022-09-03T21:38:32;13.59;67.93
70051;SHT30;57391;51.306;22.680;2022-09-03T21:47:07;13.53;68.22
70051;SHT30;57391;51.306;22.680;2022-09-03T21:49:45;13.50;67.93
70051;SHT30;57391;51.306;22.680;2022-09-03T21:52:53;13.45;67.79
70051;SHT30;57391;51.306;22.680;2022-09-03T21:58:28;13.29;69.64
70051;SHT30;57391;51.306;22.680;2022-09-03T22:01:05;13.21;70.12
70051;SHT30;57391;51.306;22.680;2022-09-03T22:03:45;13.15;70.10
70051;SHT30;57391;51.306;22.680;2022-09-03T22:06:22;13.11;70.23
70051;SHT30;57391;51.306;22.680;2022-09-03T22:09:10;13.01;71.06
70051;SHT30;57391;51.306;22.680;2022-09-03T22:14:32;12.83;71.70
70051;SHT30;57391;51.306;22.680;2022-09-03T22:20:12;12.57;72.75
70051;SHT30;57391;51.306;22.680;2022-09-03T22:25:34;12.39;73.84
70051;SHT30;57391;51.306;22.680;2022-09-03T22:28:24;12.31;74.25
70051;SHT30;57391;51.306;22.680;2022-09-03T22:31:05;12.26;74.61
70051;SHT30;57391;51.306;22.680;2022-09-03T22:37:11;12.18;74.69
70051;SHT30;57391;51.306;22.680;2022-09-03T22:39:50;12.19;74.04
70051;SHT30;57391;51.306;22.680;2022-09-03T22:45:34;12.24;73.33
70051;SHT30;57391;51.306;22.680;2022-09-03T22:48:16;12.25;73.12
70051;SHT30;57391;51.306;22.680;2022-09-03T22:50:50;12.27;72.96
70051;SHT30;57391;51.306;22.680;2022-09-03T22:53:31;12.28;72.79
70051;SHT30;57391;51.306;22.680;2022-09-03T22:56:24;12.27;72.83
70051;SHT30;57391;51.306;22.680;2022-09-03T22:59:02;12.26;72.93
70051;SHT30;57391;51.306;22.680;2022-09-03T23:09:56;12.22;74.35
70051;SHT30;57391;51.306;22.680;2022-09-03T23:12:47;12.14;74.63
70051;SHT30;57391;51.306;22.680;2022-09-03T23:15:24;12.09;74.44
70051;SHT30;57391;51.306;22.680;2022-09-03T23:20:59;12.09;73.83
70051;SHT30;57391;51.306;22.680;2022-09-03T23:23:36;12.08;74.23
70051;SHT30;57391;51.306;22.680;2022-09-03T23:26:20;12.05;74.60
70051;SHT30;57391;51.306;22.680;2022-09-03T23:29:14;11.99;74.77
70051;SHT30;57391;51.306;22.680;2022-09-03T23:32:07;11.97;73.33
70051;SHT30;57391;51.306;22.680;2022-09-03T23:34:34;11.94;72.76
70051;SHT30;57391;51.306;22.680;2022-09-03T23:54:36;11.61;75.05
70051;SHT30;57391;51.306;22.680;2022-09-03T23:57:22;11.51;74.68
